sensor_id;sensor_type;location;lat;lon;timestamp;P1;durP1;ratioP1;P2;durP2;ratioP2
46897;SDS011;32646;50.958;6.258;2024-03-08T00:01:34;19.40;;;10.27;;
46897;SDS011;32646;50.958;6.258;2024-03-08T00:04:01;21.80;;;9.80;;
46897;SDS011;32646;50.958;6.258;2024-03-08T00:06:27;18.80;;;9.30;;
46897;SDS011;32646;50.958;6.258;2024-03-08T00:08:54;16.67;;;9.35;;
46897;SDS011;32646;50.958;6.258;2024-03-08T00:11:20;16.95;;;9.10;;
46897;SDS011;32646;50.958;6.258;2024-03-08T00:13:47;15.80;;;8.55;;
46897;SDS011;32646;50.958;6.258;2024-03-08T00:16:14;19.27;;;9.32;;
46897;SDS011;32646;50.958;6.258;2024-03-08T00:18:40;17.15;;;9.07;;
46897;SDS011;32646;50.958;6.258;2024-03-08T00:21:07;19.77;;;8.88;;
46897;SDS011;32646;50.958;6.258;2024-03-08T00:23:34;18.80;;;9.95;;
46897;SDS011;32646;50.958;6.258;2024-03-08T00:26:03;15.68;;;8.35;;
46897;SDS011;32646;50.958;6.258;2024-03-08T00:28:30;18.23;;;8.98;;
46897;SDS011;32646;50.958;6.258;2024-03-08T00:30:56;19.00;;;9.68;;
46897;SDS011;32646;50.958;6.258;2024-03-08T00:33:23;18.83;;;9.25;;
46897;SDS011;32646;50.958;6.258;2024-03-08T00:35:50;20.20;;;10.05;;
46897;SDS011;32646;50.958;6.258;2024-03-08T00:38:17;19.65;;;9.18;;
46897;SDS011;32646;50.958;6.258;2024-03-08T00:40:43;17.48;;;9.07;;
46897;SDS011;32646;50.958;6.258;2024-03-08T00:43:10;21.17;;;8.65;;
46897;SDS011;32646;50.958;6.258;2024-03-08T00:45:37;19.02;;;9.43;;
46897;SDS011;32646;50.958;6.258;2024-03-08T00:48:03;20.20;;;9.75;;
46897;SDS011;32646;50.958;6.258;2024-03-08T00:50:30;18.83;;;8.95;;
46897;SDS011;32646;50.958;6.258;2024-03-08T00:52:57;17.80;;;8.48;;
46897;SDS011;32646;50.958;6.258;2024-03-08T00:55:23;21.48;;;9.35;;
46897;SDS011;32646;50.958;6.258;2024-03-08T00:57:50;21.20;;;9.55;;
46897;SDS011;32646;50.958;6.258;2024-03-08T01:00:17;18.77;;;8.45;;
46897;SDS011;32646;50.958;6.258;2024-03-08T01:02:44;14.27;;;7.93;;
46897;SDS011;32646;50.958;6.258;2024-03-08T01:05:11;21.60;;;10.30;;
46897;SDS011;32646;50.958;6.258;2024-03-08T01:07:37;18.30;;;8.65;;
46897;SDS011;32646;50.958;6.258;2024-03-08T01:10:04;20.33;;;10.18;;
46897;SDS011;32646;50.958;6.258;2024-03-08T01:12:31;18.20;;;9.05;;
46897;SDS011;32646;50.958;6.258;2024-03-08T01:14:57;17.80;;;8.95;;
46897;SDS011;32646;50.958;6.258;2024-03-08T01:17:24;22.77;;;9.18;;
46897;SDS011;32646;50.958;6.258;2024-03-08T01:19:51;18.88;;;9.25;;
46897;SDS011;32646;50.958;6.258;2024-03-08T01:22:18;16.63;;;9.25;;
46897;SDS011;32646;50.958;6.258;2024-03-08T01:24:45;20.92;;;9.20;;
46897;SDS011;32646;50.958;6.258;2024-03-08T01:27:11;19.58;;;8.48;;
46897;SDS011;32646;50.958;6.258;2024-03-08T01:29:38;20.35;;;8.75;;
46897;SDS011;32646;50.958;6.258;2024-03-08T01:32:05;22.25;;;10.18;;
46897;SDS011;32646;50.958;6.258;2024-03-08T01:34:31;20.70;;;9.65;;
46897;SDS011;32646;50.958;6.258;2024-03-08T01:36:58;18.63;;;9.18;;
46897;SDS011;32646;50.958;6.258;2024-03-08T01:39:25;18.23;;;8.20;;
46897;SDS011;32646;50.958;6.258;2024-03-08T01:41:51;20.90;;;9.20;;
46897;SDS011;32646;50.958;6.258;2024-03-08T01:44:18;20.80;;;9.02;;
46897;SDS011;32646;50.958;6.258;2024-03-08T01:46:44;18.45;;;9.07;;
46897;SDS011;32646;50.958;6.258;2024-03-08T01:49:12;20.02;;;8.40;;
46897;SDS011;32646;50.958;6.258;2024-03-08T01:51:40;18.90;;;9.07;;
46897;SDS011;32646;50.958;6.258;2024-03-08T01:54:08;18.42;;;8.73;;
46897;SDS011;32646;50.958;6.258;2024-03-08T01:56:37;20.52;;;8.85;;
46897;SDS011;32646;50.958;6.258;2024-03-08T01:59:04;16.25;;;8.05;;
46897;SDS011;32646;50.958;6.258;2024-03-08T02:01:31;21.92;;;9.68;;
46897;SDS011;32646;50.958;6.258;2024-03-08T02:03:58;20.65;;;9.70;;
46897;SDS011;32646;50.958;6.258;2024-03-08T02:06:25;22.05;;;8.40;;
46897;SDS011;32646;50.958;6.258;2024-03-08T02:08:52;17.85;;;8.20;;
46897;SDS011;32646;50.958;6.258;2024-03-08T02:11:18;20.75;;;9.60;;
46897;SDS011;32646;50.958;6.258;2024-03-08T02:13:46;21.02;;;9.88;;
46897;SDS011;32646;50.958;6.258;2024-03-08T02:16:19;21.77;;;9.23;;
46897;SDS011;32646;50.958;6.258;2024-03-08T02:18:47;19.40;;;8.93;;
46897;SDS011;32646;50.958;6.258;2024-03-08T02:21:14;22.55;;;9.27;;
46897;SDS011;32646;50.958;6.258;2024-03-08T02:23:43;22.20;;;8.88;;
46897;SDS011;32646;50.958;6.258;2024-03-08T02:26:10;17.40;;;8.20;;
46897;SDS011;32646;50.958;6.258;2024-03-08T02:28:37;18.10;;;8.98;;
46897;SDS011;32646;50.958;6.258;2024-03-08T02:31:04;17.15;;;8.77;;
46897;SDS011;32646;50.958;6.258;2024-03-08T02:33:31;17.35;;;8.43;;
46897;SDS011;32646;50.958;6.258;2024-03-08T02:35:57;20.08;;;9.52;;
46897;SDS011;32646;50.958;6.258;2024-03-08T02:38:24;19.92;;;9.10;;
46897;SDS011;32646;50.958;6.258;2024-03-08T02:40:52;18.45;;;8.95;;
46897;SDS011;32646;50.958;6.258;2024-03-08T02:43:20;22.20;;;8.98;;
46897;SDS011;32646;50.958;6.258;2024-03-08T02:45:47;21.15;;;9.68;;
46897;SDS011;32646;50.958;6.258;2024-03-08T02:48:14;17.35;;;8.52;;
46897;SDS011;32646;50.958;6.258;2024-03-08T02:50:41;19.00;;;9.32;;
46897;SDS011;32646;50.958;6.258;2024-03-08T02:53:09;16.90;;;7.38;;
46897;SDS011;32646;50.958;6.258;2024-03-08T02:55:39;17.40;;;7.85;;
46897;SDS011;32646;50.958;6.258;2024-03-08T02:58:07;18.90;;;8.27;;
46897;SDS011;32646;50.958;6.258;2024-03-08T03:00:34;14.55;;;7.88;;
46897;SDS011;32646;50.958;6.258;2024-03-08T03:03:01;22.20;;;9.10;;
46897;SDS011;32646;50.958;6.258;2024-03-08T03:05:27;22.58;;;9.15;;
46897;SDS011;32646;50.958;6.258;2024-03-08T03:07:54;25.75;;;9.88;;
46897;SDS011;32646;50.958;6.258;2024-03-08T03:10:21;21.35;;;10.23;;
46897;SDS011;32646;50.958;6.258;2024-03-08T03:12:48;19.60;;;8.93;;
46897;SDS011;32646;50.958;6.258;2024-03-08T03:15:15;22.13;;;8.55;;
46897;SDS011;32646;50.958;6.258;2024-03-08T03:17:45;18.77;;;9.23;;
46897;SDS011;32646;50.958;6.258;2024-03-08T03:20:13;25.17;;;9.70;;
46897;SDS011;32646;50.958;6.258;2024-03-08T03:22:40;19.67;;;9.40;;
46897;SDS011;32646;50.958;6.258;2024-03-08T03:25:08;24.23;;;10.38;;
46897;SDS011;32646;50.958;6.258;2024-03-08T03:27:35;21.27;;;9.75;;
46897;SDS011;32646;50.958;6.258;2024-03-08T03:30:01;18.58;;;7.57;;
46897;SDS011;32646;50.958;6.258;2024-03-08T03:32:29;17.65;;;9.85;;
46897;SDS011;32646;50.958;6.258;2024-03-08T03:34:56;20.42;;;9.30;;
46897;SDS011;32646;50.958;6.258;2024-03-08T03:37:22;18.33;;;8.10;;
46897;SDS011;32646;50.958;6.258;2024-03-08T03:39:49;19.98;;;9.80;;
46897;SDS011;32646;50.958;6.258;2024-03-08T03:42:15;19.48;;;9.52;;
46897;SDS011;32646;50.958;6.258;2024-03-08T03:44:45;19.80;;;8.48;;
46897;SDS011;32646;50.958;6.258;2024-03-08T03:49:40;15.85;;;7.28;;
46897;SDS011;32646;50.958;6.258;2024-03-08T03:52:07;22.33;;;9.77;;
46897;SDS011;32646;50.958;6.258;2024-03-08T03:54:34;21.50;;;9.10;;
46897;SDS011;32646;50.958;6.258;2024-03-08T03:57:00;19.63;;;8.05;;
46897;SDS011;32646;50.958;6.258;2024-03-08T03:59:27;19.88;;;9.05;;
46897;SDS011;32646;50.958;6.258;2024-03-08T04:01:54;23.15;;;9.35;;
46897;SDS011;32646;50.958;6.258;2024-03-08T04:04:21;19.77;;;9.85;;
46897;SDS011;32646;50.958;6.258;2024-03-08T04:06:47;18.40;;;9.27;;
46897;SDS011;32646;50.958;6.258;2024-03-08T04:09:14;19.58;;;8.75;;
46897;SDS011;32646;50.958;6.258;2024-03-08T04:11:41;20.33;;;8.63;;
46897;SDS011;32646;50.958;6.258;2024-03-08T04:14:07;21.63;;;8.85;;
46897;SDS011;32646;50.958;6.258;2024-03-08T04:16:34;22.38;;;8.32;;
46897;SDS011;32646;50.958;6.258;2024-03-08T04:19:00;22.02;;;9.82;;
46897;SDS011;32646;50.958;6.258;2024-03-08T04:21:27;20.38;;;9.52;;
46897;SDS011;32646;50.958;6.258;2024-03-08T04:23:56;23.73;;;10.57;;
46897;SDS011;32646;50.958;6.258;2024-03-08T04:26:23;27.13;;;10.43;;
46897;SDS011;32646;50.958;6.258;2024-03-08T04:28:49;20.55;;;9.30;;
46897;SDS011;32646;50.958;6.258;2024-03-08T04:31:16;22.42;;;9.73;;
46897;SDS011;32646;50.958;6.258;2024-03-08T04:33:42;23.38;;;8.52;;
46897;SDS011;32646;50.958;6.258;2024-03-08T04:36:09;20.30;;;9.00;;
46897;SDS011;32646;50.958;6.258;2024-03-08T04:38:36;23.75;;;9.98;;
46897;SDS011;32646;50.958;6.258;2024-03-08T04:41:02;19.58;;;10.30;;
46897;SDS011;32646;50.958;6.258;2024-03-08T04:43:30;25.33;;;10.55;;
46897;SDS011;32646;50.958;6.258;2024-03-08T04:45:56;24.90;;;10.50;;
46897;SDS011;32646;50.958;6.258;2024-03-08T04:48:23;23.02;;;10.32;;
46897;SDS011;32646;50.958;6.258;2024-03-08T04:50:49;22.83;;;9.00;;
46897;SDS011;32646;50.958;6.258;2024-03-08T04:53:16;22.85;;;9.85;;
46897;SDS011;32646;50.958;6.258;2024-03-08T04:55:43;19.98;;;8.68;;
46897;SDS011;32646;50.958;6.258;2024-03-08T04:58:09;20.52;;;9.13;;
46897;SDS011;32646;50.958;6.258;2024-03-08T05:00:36;21.23;;;9.32;;
46897;SDS011;32646;50.958;6.258;2024-03-08T05:03:03;20.15;;;9.73;;
46897;SDS011;32646;50.958;6.258;2024-03-08T05:05:30;20.50;;;10.18;;
46897;SDS011;32646;50.958;6.258;2024-03-08T05:07:57;22.95;;;9.57;;
46897;SDS011;32646;50.958;6.258;2024-03-08T05:10:23;27.02;;;9.85;;
46897;SDS011;32646;50.958;6.258;2024-03-08T05:12:50;16.83;;;8.00;;
46897;SDS011;32646;50.958;6.258;2024-03-08T05:15:20;18.27;;;8.75;;
46897;SDS011;32646;50.958;6.258;2024-03-08T05:17:46;23.27;;;10.18;;
46897;SDS011;32646;50.958;6.258;2024-03-08T05:20:13;20.08;;;8.63;;
46897;SDS011;32646;50.958;6.258;2024-03-08T05:22:40;22.30;;;8.43;;
46897;SDS011;32646;50.958;6.258;2024-03-08T05:25:06;23.30;;;9.35;;
46897;SDS011;32646;50.958;6.258;2024-03-08T05:27:34;19.70;;;9.75;;
46897;SDS011;32646;50.958;6.258;2024-03-08T05:30:02;21.50;;;9.77;;
46897;SDS011;32646;50.958;6.258;2024-03-08T05:32:29;23.60;;;9.43;;
46897;SDS011;32646;50.958;6.258;2024-03-08T05:34:57;25.45;;;10.77;;
46897;SDS011;32646;50.958;6.258;2024-03-08T05:37:23;22.10;;;9.50;;
46897;SDS011;32646;50.958;6.258;2024-03-08T05:39:50;20.00;;;8.95;;
46897;SDS011;32646;50.958;6.258;2024-03-08T05:42:16;24.15;;;9.32;;
46897;SDS011;32646;50.958;6.258;2024-03-08T05:44:43;24.15;;;10.18;;
46897;SDS011;32646;50.958;6.258;2024-03-08T05:47:10;16.67;;;7.50;;
46897;SDS011;32646;50.958;6.258;2024-03-08T05:49:37;22.05;;;9.65;;
46897;SDS011;32646;50.958;6.258;2024-03-08T05:52:03;21.40;;;8.77;;
46897;SDS011;32646;50.958;6.258;2024-03-08T05:54:30;28.08;;;9.98;;
46897;SDS011;32646;50.958;6.258;2024-03-08T05:56:56;21.85;;;10.05;;
46897;SDS011;32646;50.958;6.258;2024-03-08T05:59:23;21.70;;;9.25;;
46897;SDS011;32646;50.958;6.258;2024-03-08T06:01:50;21.30;;;9.05;;
46897;SDS011;32646;50.958;6.258;2024-03-08T06:04:16;17.30;;;9.20;;
46897;SDS011;32646;50.958;6.258;2024-03-08T06:06:43;18.05;;;9.35;;
46897;SDS011;32646;50.958;6.258;2024-03-08T06:09:11;23.50;;;10.00;;
46897;SDS011;32646;50.958;6.258;2024-03-08T06:11:39;24.15;;;10.40;;
46897;SDS011;32646;50.958;6.258;2024-03-08T06:14:05;22.95;;;9.38;;
46897;SDS011;32646;50.958;6.258;2024-03-08T06:16:33;22.80;;;9.90;;
46897;SDS011;32646;50.958;6.258;2024-03-08T06:18:59;19.83;;;8.68;;
46897;SDS011;32646;50.958;6.258;2024-03-08T06:21:27;23.10;;;9.45;;
46897;SDS011;32646;50.958;6.258;2024-03-08T06:23:54;23.23;;;8.88;;
46897;SDS011;32646;50.958;6.258;2024-03-08T06:26:21;21.83;;;8.90;;
46897;SDS011;32646;50.958;6.258;2024-03-08T06:28:48;24.48;;;8.98;;
46897;SDS011;32646;50.958;6.258;2024-03-08T06:31:15;24.30;;;10.25;;
46897;SDS011;32646;50.958;6.258;2024-03-08T06:33:41;23.05;;;10.82;;
46897;SDS011;32646;50.958;6.258;2024-03-08T06:36:09;23.55;;;10.27;;
46897;SDS011;32646;50.958;6.258;2024-03-08T06:38:35;20.98;;;9.75;;
46897;SDS011;32646;50.958;6.258;2024-03-08T06:41:02;20.25;;;8.65;;
46897;SDS011;32646;50.958;6.258;2024-03-08T06:43:29;21.55;;;9.73;;
46897;SDS011;32646;50.958;6.258;2024-03-08T06:45:57;23.20;;;9.80;;
46897;SDS011;32646;50.958;6.258;2024-03-08T06:48:23;21.80;;;9.43;;
46897;SDS011;32646;50.958;6.258;2024-03-08T06:50:50;20.88;;;9.15;;
46897;SDS011;32646;50.958;6.258;2024-03-08T06:53:17;20.30;;;8.82;;
46897;SDS011;32646;50.958;6.258;2024-03-08T06:55:47;23.98;;;9.98;;
46897;SDS011;32646;50.958;6.258;2024-03-08T06:58:14;20.70;;;9.77;;
46897;SDS011;32646;50.958;6.258;2024-03-08T07:00:41;22.92;;;10.68;;
46897;SDS011;32646;50.958;6.258;2024-03-08T07:03:07;21.75;;;9.90;;
46897;SDS011;32646;50.958;6.258;2024-03-08T07:05:34;20.25;;;9.43;;
46897;SDS011;32646;50.958;6.258;2024-03-08T07:08:01;23.52;;;9.75;;
46897;SDS011;32646;50.958;6.258;2024-03-08T07:10:30;22.40;;;9.55;;
46897;SDS011;32646;50.958;6.258;2024-03-08T07:12:57;20.75;;;9.00;;
46897;SDS011;32646;50.958;6.258;2024-03-08T07:15:23;22.90;;;10.30;;
46897;SDS011;32646;50.958;6.258;2024-03-08T07:17:50;15.43;;;6.38;;
46897;SDS011;32646;50.958;6.258;2024-03-08T07:20:17;20.45;;;9.63;;
46897;SDS011;32646;50.958;6.258;2024-03-08T07:22:47;24.17;;;10.35;;
46897;SDS011;32646;50.958;6.258;2024-03-08T07:25:14;20.20;;;8.93;;
46897;SDS011;32646;50.958;6.258;2024-03-08T07:27:41;21.10;;;9.05;;
46897;SDS011;32646;50.958;6.258;2024-03-08T07:30:07;17.48;;;8.45;;
46897;SDS011;32646;50.958;6.258;2024-03-08T07:32:34;21.55;;;10.02;;
46897;SDS011;32646;50.958;6.258;2024-03-08T07:35:01;19.02;;;7.75;;
46897;SDS011;32646;50.958;6.258;2024-03-08T07:37:28;23.20;;;10.07;;
46897;SDS011;32646;50.958;6.258;2024-03-08T07:39:55;17.92;;;8.38;;
46897;SDS011;32646;50.958;6.258;2024-03-08T07:42:21;19.02;;;9.52;;
46897;SDS011;32646;50.958;6.258;2024-03-08T07:44:48;22.98;;;9.80;;
46897;SDS011;32646;50.958;6.258;2024-03-08T07:47:15;22.08;;;9.38;;
46897;SDS011;32646;50.958;6.258;2024-03-08T07:49:41;20.10;;;9.20;;
46897;SDS011;32646;50.958;6.258;2024-03-08T07:52:08;20.48;;;10.07;;
46897;SDS011;32646;50.958;6.258;2024-03-08T07:54:35;21.40;;;10.07;;
46897;SDS011;32646;50.958;6.258;2024-03-08T07:57:01;21.33;;;9.60;;
46897;SDS011;32646;50.958;6.258;2024-03-08T07:59:28;19.90;;;9.65;;
46897;SDS011;32646;50.958;6.258;2024-03-08T08:01:55;20.95;;;10.15;;
46897;SDS011;32646;50.958;6.258;2024-03-08T08:04:22;17.73;;;9.68;;
46897;SDS011;32646;50.958;6.258;2024-03-08T08:06:48;18.35;;;9.25;;
46897;SDS011;32646;50.958;6.258;2024-03-08T08:09:15;19.02;;;8.65;;
46897;SDS011;32646;50.958;6.258;2024-03-08T08:11:41;19.58;;;9.32;;
46897;SDS011;32646;50.958;6.258;2024-03-08T08:14:09;17.35;;;8.07;;
46897;SDS011;32646;50.958;6.258;2024-03-08T08:16:36;19.65;;;9.52;;
46897;SDS011;32646;50.958;6.258;2024-03-08T08:19:03;19.58;;;9.73;;
46897;SDS011;32646;50.958;6.258;2024-03-08T08:21:30;20.08;;;10.13;;
46897;SDS011;32646;50.958;6.258;2024-03-08T08:23:56;20.63;;;9.85;;
46897;SDS011;32646;50.958;6.258;2024-03-08T08:26:23;19.98;;;10.13;;
46897;SDS011;32646;50.958;6.258;2024-03-08T08:28:50;19.17;;;9.48;;
46897;SDS011;32646;50.958;6.258;2024-03-08T08:31:16;17.52;;;9.55;;
46897;SDS011;32646;50.958;6.258;2024-03-08T08:33:43;17.58;;;9.63;;
46897;SDS011;32646;50.958;6.258;2024-03-08T08:36:10;17.70;;;9.02;;
46897;SDS011;32646;50.958;6.258;2024-03-08T08:38:37;20.42;;;10.05;;
46897;SDS011;32646;50.958;6.258;2024-03-08T08:41:03;19.17;;;9.90;;
46897;SDS011;32646;50.958;6.258;2024-03-08T08:43:30;24.05;;;10.80;;
46897;SDS011;32646;50.958;6.258;2024-03-08T08:45:57;16.13;;;9.00;;
46897;SDS011;32646;50.958;6.258;2024-03-08T08:48:23;19.45;;;10.05;;
46897;SDS011;32646;50.958;6.258;2024-03-08T08:50:50;15.68;;;8.15;;
46897;SDS011;32646;50.958;6.258;2024-03-08T08:53:17;17.60;;;8.75;;
46897;SDS011;32646;50.958;6.258;2024-03-08T08:55:44;21.42;;;9.75;;
46897;SDS011;32646;50.958;6.258;2024-03-08T08:58:10;18.80;;;9.38;;
46897;SDS011;32646;50.958;6.258;2024-03-08T09:00:37;18.13;;;8.02;;
46897;SDS011;32646;50.958;6.258;2024-03-08T09:03:04;16.50;;;8.30;;
46897;SDS011;32646;50.958;6.258;2024-03-08T09:05:31;19.90;;;9.98;;
46897;SDS011;32646;50.958;6.258;2024-03-08T09:08:00;18.77;;;9.18;;
46897;SDS011;32646;50.958;6.258;2024-03-08T09:10:27;19.77;;;9.32;;
46897;SDS011;32646;50.958;6.258;2024-03-08T09:12:56;19.17;;;9.27;;
46897;SDS011;32646;50.958;6.258;2024-03-08T09:15:23;17.88;;;9.25;;
46897;SDS011;32646;50.958;6.258;2024-03-08T09:17:49;18.27;;;8.80;;
46897;SDS011;32646;50.958;6.258;2024-03-08T09:20:16;19.00;;;9.88;;
46897;SDS011;32646;50.958;6.258;2024-03-08T09:22:46;16.58;;;9.07;;
46897;SDS011;32646;50.958;6.258;2024-03-08T09:25:13;16.88;;;8.85;;
46897;SDS011;32646;50.958;6.258;2024-03-08T09:27:46;15.13;;;8.35;;
46897;SDS011;32646;50.958;6.258;2024-03-08T09:30:13;18.02;;;8.93;;
46897;SDS011;32646;50.958;6.258;2024-03-08T09:32:39;18.05;;;9.52;;
46897;SDS011;32646;50.958;6.258;2024-03-08T09:35:06;19.10;;;9.73;;
46897;SDS011;32646;50.958;6.258;2024-03-08T09:37:34;17.80;;;8.65;;
46897;SDS011;32646;50.958;6.258;2024-03-08T09:40:01;16.80;;;9.18;;
46897;SDS011;32646;50.958;6.258;2024-03-08T09:42:28;17.77;;;9.45;;
46897;SDS011;32646;50.958;6.258;2024-03-08T09:44:54;16.73;;;9.15;;
46897;SDS011;32646;50.958;6.258;2024-03-08T09:47:21;18.98;;;9.65;;
46897;SDS011;32646;50.958;6.258;2024-03-08T09:49:50;18.48;;;8.73;;
46897;SDS011;32646;50.958;6.258;2024-03-08T09:52:17;16.08;;;9.15;;
46897;SDS011;32646;50.958;6.258;2024-03-08T09:54:45;18.58;;;9.50;;
46897;SDS011;32646;50.958;6.258;2024-03-08T09:57:11;17.92;;;9.75;;
46897;SDS011;32646;50.958;6.258;2024-03-08T09:59:38;15.75;;;8.95;;
46897;SDS011;32646;50.958;6.258;2024-03-08T10:02:05;13.45;;;7.45;;
46897;SDS011;32646;50.958;6.258;2024-03-08T10:04:32;18.33;;;9.68;;
46897;SDS011;32646;50.958;6.258;2024-03-08T10:07:00;17.63;;;8.85;;
46897;SDS011;32646;50.958;6.258;2024-03-08T10:09:27;15.63;;;8.25;;
46897;SDS011;32646;50.958;6.258;2024-03-08T10:11:57;15.02;;;7.07;;
46897;SDS011;32646;50.958;6.258;2024-03-08T10:14:24;16.35;;;7.75;;
46897;SDS011;32646;50.958;6.258;2024-03-08T10:16:51;17.40;;;8.15;;
46897;SDS011;32646;50.958;6.258;2024-03-08T10:19:19;16.52;;;7.75;;
46897;SDS011;32646;50.958;6.258;2024-03-08T10:21:47;17.42;;;8.52;;
46897;SDS011;32646;50.958;6.258;2024-03-08T10:24:14;17.42;;;8.15;;
46897;SDS011;32646;50.958;6.258;2024-03-08T10:26:41;15.88;;;8.13;;
46897;SDS011;32646;50.958;6.258;2024-03-08T10:29:08;17.35;;;8.48;;
46897;SDS011;32646;50.958;6.258;2024-03-08T10:31:34;15.10;;;7.95;;
46897;SDS011;32646;50.958;6.258;2024-03-08T10:34:01;15.85;;;7.50;;
46897;SDS011;32646;50.958;6.258;2024-03-08T10:36:28;19.52;;;8.93;;
46897;SDS011;32646;50.958;6.258;2024-03-08T10:38:55;16.83;;;7.55;;
46897;SDS011;32646;50.958;6.258;2024-03-08T10:41:25;13.57;;;6.47;;
46897;SDS011;32646;50.958;6.258;2024-03-08T10:44:05;11.93;;;6.40;;
46897;SDS011;32646;50.958;6.258;2024-03-08T10:49:37;12.25;;;6.25;;
46897;SDS011;32646;50.958;6.258;2024-03-08T10:52:07;12.00;;;5.68;;
46897;SDS011;32646;50.958;6.258;2024-03-08T10:54:37;14.40;;;7.57;;
46897;SDS011;32646;50.958;6.258;2024-03-08T10:57:10;10.75;;;6.28;;
46897;SDS011;32646;50.958;6.258;2024-03-08T10:59:39;14.60;;;6.82;;
46897;SDS011;32646;50.958;6.258;2024-03-08T11:02:06;14.82;;;7.03;;
46897;SDS011;32646;50.958;6.258;2024-03-08T11:04:33;9.82;;;5.38;;
46897;SDS011;32646;50.958;6.258;2024-03-08T11:07:00;17.98;;;7.72;;
46897;SDS011;32646;50.958;6.258;2024-03-08T11:14:53;17.00;;;6.15;;
46897;SDS011;32646;50.958;6.258;2024-03-08T11:17:21;14.27;;;6.93;;
46897;SDS011;32646;50.958;6.258;2024-03-08T11:19:57;16.45;;;6.85;;
46897;SDS011;32646;50.958;6.258;2024-03-08T11:22:28;13.43;;;5.93;;
46897;SDS011;32646;50.958;6.258;2024-03-08T11:24:58;14.05;;;6.30;;
46897;SDS011;32646;50.958;6.258;2024-03-08T11:27:30;12.77;;;6.38;;
46897;SDS011;32646;50.958;6.258;2024-03-08T11:30:01;14.07;;;6.05;;
46897;SDS011;32646;50.958;6.258;2024-03-08T11:32:32;14.80;;;6.50;;
46897;SDS011;32646;50.958;6.258;2024-03-08T11:34:59;13.20;;;6.25;;
46897;SDS011;32646;50.958;6.258;2024-03-08T11:37:26;15.27;;;6.80;;
46897;SDS011;32646;50.958;6.258;2024-03-08T11:39:54;14.77;;;6.28;;
46897;SDS011;32646;50.958;6.258;2024-03-08T11:42:21;11.60;;;6.22;;
46897;SDS011;32646;50.958;6.258;2024-03-08T11:44:48;13.02;;;6.22;;
46897;SDS011;32646;50.958;6.258;2024-03-08T11:47:17;11.02;;;5.30;;
46897;SDS011;32646;50.958;6.258;2024-03-08T11:49:43;13.52;;;6.07;;
46897;SDS011;32646;50.958;6.258;2024-03-08T11:52:11;13.20;;;6.32;;
46897;SDS011;32646;50.958;6.258;2024-03-08T11:54:38;13.45;;;6.38;;
46897;SDS011;32646;50.958;6.258;2024-03-08T11:57:05;11.80;;;5.90;;
46897;SDS011;32646;50.958;6.258;2024-03-08T11:59:32;13.00;;;5.00;;
46897;SDS011;32646;50.958;6.258;2024-03-08T12:01:59;11.77;;;5.95;;
46897;SDS011;32646;50.958;6.258;2024-03-08T12:04:28;13.00;;;5.68;;
46897;SDS011;32646;50.958;6.258;2024-03-08T12:06:55;13.10;;;5.93;;
46897;SDS011;32646;50.958;6.258;2024-03-08T12:09:25;12.95;;;5.90;;
46897;SDS011;32646;50.958;6.258;2024-03-08T12:11:51;14.95;;;6.22;;
46897;SDS011;32646;50.958;6.258;2024-03-08T12:14:18;12.65;;;6.25;;
46897;SDS011;32646;50.958;6.258;2024-03-08T12:16:45;12.20;;;5.35;;
46897;SDS011;32646;50.958;6.258;2024-03-08T12:19:11;10.57;;;5.65;;
46897;SDS011;32646;50.958;6.258;2024-03-08T12:21:38;11.50;;;5.65;;
46897;SDS011;32646;50.958;6.258;2024-03-08T12:24:05;10.80;;;5.65;;
46897;SDS011;32646;50.958;6.258;2024-03-08T12:26:33;12.55;;;5.65;;
46897;SDS011;32646;50.958;6.258;2024-03-08T12:29:14;13.05;;;5.85;;
46897;SDS011;32646;50.958;6.258;2024-03-08T12:31:45;15.73;;;6.63;;
46897;SDS011;32646;50.958;6.258;2024-03-08T12:34:13;10.60;;;5.72;;
46897;SDS011;32646;50.958;6.258;2024-03-08T12:36:48;13.25;;;6.05;;
46897;SDS011;32646;50.958;6.258;2024-03-08T12:39:16;10.80;;;5.57;;
46897;SDS011;32646;50.958;6.258;2024-03-08T12:41:47;11.40;;;5.20;;
46897;SDS011;32646;50.958;6.258;2024-03-08T12:44:14;11.60;;;6.00;;
46897;SDS011;32646;50.958;6.258;2024-03-08T12:46:40;12.77;;;5.90;;
46897;SDS011;32646;50.958;6.258;2024-03-08T12:49:10;12.35;;;6.18;;
46897;SDS011;32646;50.958;6.258;2024-03-08T12:51:37;11.27;;;4.90;;
46897;SDS011;32646;50.958;6.258;2024-03-08T12:54:07;14.77;;;5.85;;
46897;SDS011;32646;50.958;6.258;2024-03-08T12:56:34;13.30;;;5.55;;
46897;SDS011;32646;50.958;6.258;2024-03-08T12:59:02;17.23;;;6.90;;
46897;SDS011;32646;50.958;6.258;2024-03-08T13:01:32;12.32;;;6.30;;
46897;SDS011;32646;50.958;6.258;2024-03-08T13:03:58;12.57;;;6.25;;
46897;SDS011;32646;50.958;6.258;2024-03-08T13:06:25;13.00;;;5.97;;
46897;SDS011;32646;50.958;6.258;2024-03-08T13:08:52;12.80;;;5.72;;
46897;SDS011;32646;50.958;6.258;2024-03-08T13:11:19;12.55;;;6.13;;
46897;SDS011;32646;50.958;6.258;2024-03-08T13:13:46;12.98;;;6.43;;
46897;SDS011;32646;50.958;6.258;2024-03-08T13:16:13;14.27;;;6.45;;
46897;SDS011;32646;50.958;6.258;2024-03-08T13:18:40;12.80;;;6.10;;
46897;SDS011;32646;50.958;6.258;2024-03-08T13:21:07;10.65;;;5.53;;
46897;SDS011;32646;50.958;6.258;2024-03-08T13:23:34;13.25;;;6.50;;
46897;SDS011;32646;50.958;6.258;2024-03-08T13:26:01;11.65;;;5.43;;
46897;SDS011;32646;50.958;6.258;2024-03-08T13:28:27;12.85;;;6.25;;
46897;SDS011;32646;50.958;6.258;2024-03-08T13:30:54;11.65;;;6.05;;
46897;SDS011;32646;50.958;6.258;2024-03-08T13:33:26;11.57;;;5.93;;
46897;SDS011;32646;50.958;6.258;2024-03-08T13:35:52;12.65;;;6.25;;
46897;SDS011;32646;50.958;6.258;2024-03-08T13:38:19;14.20;;;6.88;;
46897;SDS011;32646;50.958;6.258;2024-03-08T13:40:46;11.95;;;5.95;;
46897;SDS011;32646;50.958;6.258;2024-03-08T13:43:13;11.07;;;6.07;;
46897;SDS011;32646;50.958;6.258;2024-03-08T13:45:39;15.70;;;6.15;;
46897;SDS011;32646;50.958;6.258;2024-03-08T13:48:06;14.48;;;6.43;;
46897;SDS011;32646;50.958;6.258;2024-03-08T13:50:33;12.88;;;5.68;;
46897;SDS011;32646;50.958;6.258;2024-03-08T13:52:59;12.02;;;6.13;;
46897;SDS011;32646;50.958;6.258;2024-03-08T13:55:27;12.48;;;6.18;;
46897;SDS011;32646;50.958;6.258;2024-03-08T13:57:54;12.98;;;6.18;;
46897;SDS011;32646;50.958;6.258;2024-03-08T14:00:21;13.80;;;6.28;;
46897;SDS011;32646;50.958;6.258;2024-03-08T14:02:47;11.68;;;5.97;;
46897;SDS011;32646;50.958;6.258;2024-03-08T14:05:14;13.02;;;6.13;;
46897;SDS011;32646;50.958;6.258;2024-03-08T14:07:41;12.57;;;6.60;;
46897;SDS011;32646;50.958;6.258;2024-03-08T14:10:08;13.50;;;6.45;;
46897;SDS011;32646;50.958;6.258;2024-03-08T14:12:35;11.63;;;6.10;;
46897;SDS011;32646;50.958;6.258;2024-03-08T14:15:02;12.25;;;6.28;;
46897;SDS011;32646;50.958;6.258;2024-03-08T14:17:28;15.07;;;6.75;;
46897;SDS011;32646;50.958;6.258;2024-03-08T14:19:55;12.13;;;5.53;;
46897;SDS011;32646;50.958;6.258;2024-03-08T14:22:22;12.65;;;6.13;;
46897;SDS011;32646;50.958;6.258;2024-03-08T14:24:48;12.07;;;6.13;;
46897;SDS011;32646;50.958;6.258;2024-03-08T14:27:15;13.45;;;5.97;;
46897;SDS011;32646;50.958;6.258;2024-03-08T14:29:42;13.00;;;5.95;;
46897;SDS011;32646;50.958;6.258;2024-03-08T14:32:08;11.85;;;5.65;;
46897;SDS011;32646;50.958;6.258;2024-03-08T14:34:35;12.10;;;5.93;;
46897;SDS011;32646;50.958;6.258;2024-03-08T14:37:02;13.02;;;6.68;;
46897;SDS011;32646;50.958;6.258;2024-03-08T14:39:31;12.90;;;5.07;;
46897;SDS011;32646;50.958;6.258;2024-03-08T14:41:58;12.57;;;5.97;;
46897;SDS011;32646;50.958;6.258;2024-03-08T14:44:26;12.35;;;5.68;;